Terminal Aerodrome Forecast
Issued by NWS Pocatello, ID

Home | Current Version | Previous Version | Text Only | Print | Product List | Glossary On
Versions: 1 2 3 4 5 6 7 8 9 10 11 12 13 14 15 16 17 18 19 20 21
000
FTUS45 KPIH 151120
TAFPIH
TAF
KPIH 151120Z 1512/1612 03006KT 3/4SM BR OVC002
     FM151700 14008KT 3SM BR OVC006
     FM160400 21010G15KT P6SM VCSH SCT006 BKN020=

USA.gov is the U.S. government's official web portal to all federal, state and local government web resources and services.